Clover Valley, Nevada Weather observations

Data are for 10 minute period ending at time listed.
 Day   Time   Solar   Ave.   Ave.  Ave.  Vector  Max.   Baro.   Total    
  of    of     Rad.   Air    Rel.  Wind   Wind   Wind  Press.  Precip.   
Year   Day            Temp.  Hum.  Speed  Dir.   Gust                    
2014   (PST)  Kw/m2    F      %     mph   deg.    mph    mb.     in.     
-------------------------------------------------------------------------
 296    0:00   0.00   28.6    63    5.3   335     6.6   829.4    0.00 
 296    0:10   0.00   27.3    66    4.4   333     5.7   829.5    0.00 
 296    0:20   0.00   27.2    65    2.5   350     4.7   829.4    0.00 
 296    0:30   0.00   27.5    63    2.4    10     3.9   829.3    0.00 
 296    0:40   0.00   27.4    64    3.2   331     5.0   829.4    0.00 
 296    0:50   0.00   26.6    66    3.7   323     4.7   829.3    0.00 
 296    1:00   0.00   27.2    66    2.7   342     3.7   829.3    0.00 
 296    1:10   0.00   27.6    65    3.2   324     4.5   829.4    0.00 
 296    1:20   0.00   27.6    66    3.9   335     4.9   829.5    0.00 
 296    1:30   0.00   28.5    65    3.9    11     5.3   829.2    0.00 
 296    1:40   0.00   28.3    68    2.1   350     3.8   829.1    0.00 
 296    1:50   0.00   28.3    67    3.2   332     4.3   828.8    0.00 
 296    2:00   0.00   28.1    66    4.2   304     5.6   828.9    0.00 
 296    2:10   0.00   28.1    66    3.9   302     5.5   829.0    0.00 
 296    2:20   0.00   29.1    66    3.1   314     4.6   828.9    0.00 
 296    2:30   0.00   30.0    65    1.4   331     2.1   828.8    0.00 
 296    2:40   0.00   29.7    67    0.6    76     2.0   828.9    0.00 
 296    2:50   0.00   28.7    67    2.0   275     5.8   828.9    0.00 
 296    3:00   0.00   28.0    70    0.6   335     2.7   828.9    0.00 
 296    3:10   0.00   28.2    70    1.0    61     2.3   828.7    0.00 
 296    3:20   0.00   28.5    65    1.2   256     1.9   828.7    0.00 
 296    3:30   0.00   30.5    61    2.5   295     3.7   828.7    0.00 
 296    3:40   0.00   29.8    64    1.1   332     2.1   828.9    0.00 
 296    3:50   0.00   28.2    68    0.9    64     2.0   828.9    0.00 
 296    4:00   0.00   29.8    65    0.9    77     2.3   828.7    0.00 
 296    4:10   0.00   29.7    68    1.6   310     3.3   828.7    0.00 
 296    4:20   0.00   28.5    69    3.2   296     6.6   828.8    0.00 
 296    4:30   0.00   28.5    66    3.0   311     5.2   828.9    0.00 
 296    4:40   0.00   28.9    66    2.7   302     4.1   828.9    0.00 
 296    4:50   0.00   29.2    67    1.9   323     3.1   828.9    0.00 
 296    5:00   0.00   30.0    67    2.1   359     3.1   829.0    0.00 
 296    5:10   0.00   29.8    69    1.9    28     3.0   829.1    0.00 
 296    5:20   0.00   29.5    72    2.1    30     3.7   829.2    0.00 
 296    5:30   0.00   30.0    70    0.5     4     2.6   829.1    0.00 
 296    5:40   0.00   30.3    72    1.8   282     6.4   829.1    0.00 
 296    5:50   0.00   30.6    66    3.5   285     6.4   829.2    0.00 
 296    6:00   0.00   30.9    64    2.4   282     3.0   829.1    0.00 
 296    6:10   0.00   31.3    62    0.8   299     2.0   829.1    0.00 
 296    6:20   0.00   30.4    68    1.5    53     3.5   829.1    0.00 
 296    6:30   0.00   30.1    69    2.5    48     3.4   829.1    0.00 
 296    6:40   0.00   31.9    68    2.0   348     3.4   829.3    0.00 
 296    6:50   0.00   35.9    59    0.3    95     1.9   829.3    0.00 
 296    7:00   0.08   38.5    53    0.5   276     2.7   829.3    0.00 
 296    7:10   0.10   41.0    45    0.8   358     1.4   829.3    0.00 
 296    7:20   0.00   42.3    44    0.2   336     1.7   829.4    0.00 
 296    7:30   0.00   43.5    40    1.2    10     2.9   829.3    0.00 
 296    7:40   0.00   43.9    41    1.5   358     2.7   829.2    0.00 
 296    7:50   0.12   46.0    38    0.5    14     2.3   829.2    0.00 
 296    8:00   0.26   48.9    34    0.9   222     2.6   829.2    0.00 
 296    8:10   0.31   48.9    34    1.2   270     2.3   829.1    0.00 
 296    8:20   0.39   50.3    33    1.3   269     3.4   829.2    0.00 
 296    8:30   0.42   51.8    30    1.4   286     4.2   829.2    0.00 
 296    8:40   0.52   53.8    28    1.7   303     3.9   829.4    0.00 
 296    8:50   0.49   55.6    26    1.0   299     3.5   829.5    0.00 
 296    9:00   0.23   58.2    24    2.0   192     4.6   829.6    0.00 
 296    9:10   0.24   59.4    24    3.1   205     6.5   829.6    0.00 
 296    9:20   0.47   59.7    23    4.1   194     7.2   829.6    0.00 
 296    9:30   0.59   60.6    23    4.4   212     7.4   829.5    0.00 
 296    9:40   0.53   61.1    23    4.6   250     7.3   829.5    0.00 
 296    9:50   0.58   60.5    23    3.2   277     6.0   829.5    0.00 
 296   10:00   0.03   62.9    21    3.1   205     5.5   829.5    0.00 
 296   10:10   0.32   64.1    20    3.8   211     9.1   829.2    0.00 
 296   10:20   0.35   65.8    19    3.3   217     7.5   829.1    0.00 
 296   10:30   0.63   67.5    16    5.0   181    10.7   829.0    0.00 
 296   10:40   0.65   67.5    16    8.5   184    14.5   828.9    0.00 
 296   10:50   0.66   67.6    16    8.7   166    15.0   828.9    0.00 
 296   11:00   0.63   68.3    15    8.0   181    13.6   828.7    0.00 
 296   11:10   0.64   68.9    16   10.3   190    16.2   828.5    0.00 
 296   11:20   0.64   69.3    15   12.0   186    16.7   828.3    0.00 
 296   11:30   0.65   68.9    15   12.8   192    20.0   828.3    0.00 
 296   11:40   0.66   69.0    16   12.2   199    18.6   828.1    0.00 
 296   11:50   0.64   68.9    16   12.5   204    18.4   828.0    0.00 
 296   12:00   0.64   68.7    16    9.7   204    16.4   827.9    0.00 
 296   12:10   0.62   69.2    16    8.4   203    15.5   827.7    0.00 
 296   12:20   0.60   69.5    16    6.5   210    13.8   827.5    0.00 
 296   12:30   0.58   69.7    16    6.9   239    11.9   827.4    0.00 
 296   12:40   0.59   69.9    16    6.3   244    12.6   827.3    0.00 
 296   12:50   0.52   70.0    16    6.9   254    11.8   827.2    0.00 
 296   13:00   0.53   70.2    16    8.7   238    16.0   827.0    0.00 
 296   13:10   0.48   71.0    15    6.7   221    11.1   826.9    0.00 
 296   13:20   0.35   70.9    15    5.4   205    13.9   826.8    0.00 
 296   13:30   0.35   70.7    15    4.8   221    10.2   826.7    0.00 
 296   13:40   0.33   70.8    15    4.5   226     9.1   826.7    0.00 
 296   13:50   0.31   70.2    16    6.2   254    11.3   826.7    0.00 
 296   14:00   0.27   70.1    16    5.7   267    11.0   826.6    0.00 
 296   14:10   0.16   69.2    16    4.6   270     8.6   826.6    0.00 
 296   14:20   0.13   68.6    17    2.6   261     6.9   826.6    0.00 
 296   14:30   0.12   67.6    16    5.3   273    11.0   826.6    0.00 
 296   14:40   0.20   68.8    16    5.0   253    12.0   826.6    0.00 
 296   14:50   0.16   68.8    15    8.3   253    12.9   826.6    0.00 
 296   15:00   0.15   68.2    16    6.3   260    10.4   826.6    0.00 
 296   15:10   0.24   69.0    16    4.5   259     7.7   826.7    0.00 
 296   15:20   0.20   70.2    14    8.1   264    12.8   826.7    0.00 
 296   15:30   0.13   68.8    16    5.0   261    10.8   826.7    0.00 
 296   15:40   0.09   67.5    17    5.4   260     9.7   826.8    0.00 
 296   15:50   0.04   66.7    16    6.3   261    11.8   826.8    0.00 
 296   16:00   0.05   65.3    18    4.7   262     7.1   826.8    0.00 
 296   16:10   0.04   64.5    18    4.8   267     8.3   826.8    0.00 
 296   16:20   0.03   64.1    18    5.1   273     6.8   826.8    0.00 
 296   16:30   0.02   63.8    17    3.2   269     4.5   826.8    0.00 
 296   16:40   0.01   63.7    17    1.2   287     2.9   826.8    0.00 
 296   16:50   0.00   61.6    20    0.1    33     1.5   826.8    0.00 
 296   17:00   0.00   58.0    26    0.9    95     2.3   826.9    0.00 
 296   17:10   0.00   58.2    22    2.5   132     4.2   826.9    0.00 
 296   17:20   0.00   58.3    22    3.4   138     5.2   826.9    0.00 
 296   17:30   0.00   55.2    26    5.6   146     7.3   826.9    0.00 
 296   17:40   0.00   58.6    21    3.7   153     4.9   826.9    0.00 
 296   17:50   0.00   58.3    21    4.1   150     5.6   827.0    0.00 
 296   18:00   0.00   53.7    25    5.1   152     6.1   827.0    0.00 
 296   18:10   0.00   52.5    27    3.5   185     5.5   827.1    0.00 
 296   18:20   0.00   53.1    26    4.8   162     6.2   827.1    0.00 
 296   18:30   0.00   53.4    26    5.1   159     5.8   827.1    0.00 
 296   18:40   0.00   52.1    29    5.4   159     6.6   827.2    0.00 
 296   18:50   0.00   51.5    30    3.3   250     8.0   827.2    0.00 
 296   19:00   0.00   53.0    28    3.2   290     4.8   827.2    0.00 
 296   19:10   0.00   48.0    32    3.0   330     4.2   827.2    0.00 
 296   19:20   0.00   46.3    33    3.5   329     4.7   827.2    0.00 
 296   19:30   0.00   46.7    33    4.2   322     6.5   827.2    0.00 
 296   19:40   0.00   46.9    33    4.4   317     5.6   827.2    0.00 
 296   19:50   0.00   45.6    33    4.3   334     6.3   827.2    0.00 
 296   20:00   0.00   46.6    32    2.8   314     4.2   827.3    0.00 
 296   20:10   0.00   48.0    30    2.9   311     4.5   827.3    0.00 
 296   20:20   0.00   46.4    32    4.7   286     6.9   827.4    0.00 
 296   20:30   0.00   42.2    38    2.4   306     5.3   827.4    0.00 
 296   20:40   0.00   42.0    39    4.0   291     6.1   827.5    0.00 
 296   20:50   0.00   41.8    41    5.7   306     7.0   827.5    0.00 
 296   21:00   0.00   40.2    44    2.2    64     3.4   827.6    0.00 
 296   21:10   0.00   39.8    43    2.9   148     4.2   827.8    0.00 
 296   21:20   0.00   41.7    39    2.6   181     4.0   827.9    0.00 
 296   21:30   0.00   44.0    37    3.3   303     5.3   827.9    0.00 
 296   21:40   0.00   43.1    39    2.3   333     4.3   827.9    0.00 
 296   21:50   0.00   42.5    42    5.3   328     7.5   827.9    0.00 
 296   22:00   0.00   42.4    43    3.2   290     7.2   828.1    0.00 
 296   22:10   0.00   40.6    45    2.6   307     5.3   828.1    0.00 
 296   22:20   0.00   38.5    49    0.6    16     2.6   828.1    0.00 
 296   22:30   0.00   38.0    51    1.0   332     2.2   828.1    0.00 
 296   22:40   0.00   39.8    48    2.5   332     4.8   828.1    0.00 
 296   22:50   0.00   40.0    48    3.1   338     4.5   828.2    0.00 
 296   23:00   0.00   38.8    51    3.8    16     5.5   828.2    0.00 
 296   23:10   0.00   36.8    54    2.4   354     4.3   828.3    0.00 

Return to Clover Valley graphs page.


Western Regional Climate Center,wrcc@dri.edu